Time;durP1;ratioP1;P1;durP2;ratioP2;P2;SDS_P1;SDS_P2;PMS_P1;PMS_P2;Temp;Humidity;BMP_temperature;BMP_pressure;BME280_temperature;BME280_humidity;BME280_pressure;Samples;Min_cycle;Max_cycle;Signal;HPM_P1;HPM_P2
2021/12/03 00:00:38;;;;;;;5.55;1.75;;;1.60;99.90;;;;;;5111687;28;20153;-60
2021/12/03 00:03:06;;;;;;;7.47;1.70;;;1.60;99.90;;;;;;5112441;28;20514;-60
2021/12/03 00:05:32;;;;;;;5.13;1.48;;;1.60;99.90;;;;;;5111746;28;20052;-58
2021/12/03 00:07:58;;;;;;;2.90;1.58;;;1.60;99.90;;;;;;5112660;28;20044;-60
2021/12/03 00:10:26;;;;;;;4.72;1.90;;;1.60;99.90;;;;;;5112870;28;20058;-60
2021/12/03 00:12:53;;;;;;;6.43;2.03;;;1.60;99.90;;;;;;5112382;27;20451;-59
2021/12/03 00:15:23;;;;;;;4.18;1.60;;;1.60;99.90;;;;;;5111591;28;20126;-60
2021/12/03 00:17:49;;;;;;;5.13;2.10;;;1.60;99.90;;;;;;5111465;28;20139;-63
2021/12/03 00:20:15;;;;;;;5.72;2.13;;;1.70;99.90;;;;;;5112808;28;20401;-59
2021/12/03 00:22:44;;;;;;;5.40;2.42;;;1.80;99.90;;;;;;5112620;28;20079;-60
2021/12/03 00:25:10;;;;;;;6.70;2.47;;;1.70;99.90;;;;;;5110833;28;20065;-59
2021/12/03 00:27:36;;;;;;;5.80;2.63;;;1.70;99.90;;;;;;5112541;28;20051;-57
2021/12/03 00:30:04;;;;;;;5.63;2.47;;;1.70;99.90;;;;;;5111867;27;20135;-59
2021/12/03 00:32:30;;;;;;;6.80;2.78;;;1.70;99.90;;;;;;5112545;28;20460;-60
2021/12/03 00:34:56;;;;;;;7.88;2.50;;;1.70;99.90;;;;;;5112032;28;20090;-59
2021/12/03 00:37:22;;;;;;;5.78;2.10;;;1.70;99.90;;;;;;5110946;28;20538;-59
2021/12/03 00:39:48;;;;;;;4.47;2.05;;;1.70;99.90;;;;;;5111379;28;20378;-58
2021/12/03 00:42:16;;;;;;;6.43;1.90;;;1.70;99.90;;;;;;5111991;28;20044;-59
2021/12/03 00:44:45;;;;;;;4.55;1.90;;;1.60;99.90;;;;;;5112305;28;20081;-60
2021/12/03 00:47:11;;;;;;;8.40;2.40;;;1.70;99.90;;;;;;5111871;28;20044;-60
2021/12/03 00:49:39;;;;;;;3.63;1.88;;;1.70;99.90;;;;;;5112172;28;20055;-60
2021/12/03 00:52:06;;;;;;;7.90;2.15;;;1.60;99.90;;;;;;5111859;28;20506;-59
2021/12/03 00:54:32;;;;;;;2.90;1.50;;;1.60;99.90;;;;;;5111673;28;20056;-60
2021/12/03 00:56:57;;;;;;;4.15;2.17;;;1.70;99.90;;;;;;5111088;28;20450;-60
2021/12/03 00:59:23;;;;;;;3.88;1.90;;;1.60;99.90;;;;;;5127928;27;20040;-60
2021/12/03 01:01:49;;;;;;;6.13;2.00;;;1.70;99.90;;;;;;5111162;28;20134;-59
2021/12/03 01:04:15;;;;;;;5.22;2.30;;;1.70;99.90;;;;;;5110754;28;20121;-60
2021/12/03 01:06:40;;;;;;;3.22;1.63;;;1.60;99.90;;;;;;5110630;28;20472;-60
2021/12/03 01:09:06;;;;;;;4.03;2.00;;;1.60;99.90;;;;;;5111701;28;20048;-60
2021/12/03 01:11:33;;;;;;;6.22;1.88;;;1.60;99.90;;;;;;5127918;28;20047;-59
2021/12/03 01:14:00;;;;;;;3.95;1.77;;;1.60;99.90;;;;;;5111594;28;20400;-60
2021/12/03 01:16:28;;;;;;;3.55;1.88;;;1.60;99.90;;;;;;5111779;28;20384;-59
2021/12/03 01:18:55;;;;;;;5.80;1.90;;;1.60;99.90;;;;;;5111739;28;20084;-60
2021/12/03 01:21:21;;;;;;;5.60;2.03;;;1.60;99.90;;;;;;5111663;28;20043;-59
2021/12/03 01:23:47;;;;;;;5.82;2.17;;;1.60;99.90;;;;;;5111955;28;20039;-60
2021/12/03 01:26:14;;;;;;;7.43;2.90;;;1.60;99.90;;;;;;5127143;28;20050;-59
2021/12/03 01:28:40;;;;;;;4.72;2.00;;;1.60;99.90;;;;;;5111667;28;20039;-60
2021/12/03 01:31:06;;;;;;;4.80;1.77;;;1.60;99.90;;;;;;5111693;28;20047;-60
2021/12/03 01:33:32;;;;;;;4.43;2.17;;;1.60;99.90;;;;;;5111826;28;20055;-60
2021/12/03 01:35:58;;;;;;;6.20;1.98;;;1.60;99.90;;;;;;5111255;28;20512;-63
2021/12/03 01:38:24;;;;;;;5.30;2.20;;;1.60;99.90;;;;;;5111648;28;20050;-60
2021/12/03 01:40:50;;;;;;;7.32;2.10;;;1.50;99.90;;;;;;5127699;28;20044;-59
2021/12/03 01:43:25;;;;;;;7.70;2.17;;;1.50;99.90;;;;;;5111263;28;20043;-59
2021/12/03 01:45:57;;;;;;;4.15;2.22;;;1.50;99.90;;;;;;5111778;28;20047;-59
2021/12/03 01:48:23;;;;;;;4.20;1.77;;;1.50;99.90;;;;;;5109937;28;20127;-59
2021/12/03 01:50:49;;;;;;;5.18;2.38;;;1.50;99.90;;;;;;5111733;28;20131;-60
2021/12/03 01:53:17;;;;;;;8.90;2.30;;;1.50;99.90;;;;;;5111285;28;20097;-60
2021/12/03 01:55:45;;;;;;;4.18;2.00;;;1.50;99.90;;;;;;5111562;28;20054;-59
2021/12/03 01:58:12;;;;;;;10.38;3.05;;;1.50;99.90;;;;;;5110773;28;20461;-59
2021/12/03 02:00:54;;;;;;;8.52;2.08;;;1.50;99.90;;;;;;5111470;28;20063;-60
2021/12/03 02:03:24;;;;;;;5.03;2.13;;;1.50;99.90;;;;;;5110158;28;20481;-60
2021/12/03 02:05:51;;;;;;;4.18;1.98;;;1.70;99.90;;;;;;5111490;28;20047;-60
2021/12/03 02:08:17;;;;;;;4.85;1.90;;;1.40;99.90;;;;;;5114427;28;20388;-60
2021/12/03 02:10:43;;;;;;;4.35;1.80;;;1.50;99.90;;;;;;5131045;27;20051;-60
2021/12/03 02:13:11;;;;;;;4.25;1.60;;;1.40;99.90;;;;;;5114706;28;20513;-60
2021/12/03 02:15:37;;;;;;;3.03;1.50;;;1.40;99.90;;;;;;5130626;27;20195;-60
2021/12/03 02:18:05;;;;;;;4.88;1.90;;;1.60;99.90;;;;;;5097068;28;20068;-63
2021/12/03 02:20:31;;;;;;;9.13;2.17;;;1.40;99.90;;;;;;5113261;28;20062;-59
2021/12/03 02:22:57;;;;;;;3.05;1.80;;;1.50;99.90;;;;;;5097053;28;20046;-60
2021/12/03 02:25:25;;;;;;;6.28;2.63;;;1.50;99.90;;;;;;5114231;28;20110;-59
2021/12/03 02:27:55;;;;;;;6.53;1.83;;;1.50;99.90;;;;;;5113789;28;20054;-60
2021/12/03 02:30:22;;;;;;;3.28;1.70;;;1.50;99.90;;;;;;5114422;28;20122;-60
2021/12/03 02:32:50;;;;;;;5.43;1.88;;;1.50;99.90;;;;;;5114717;28;20055;-59
2021/12/03 02:35:17;;;;;;;4.65;2.00;;;1.50;99.90;;;;;;5114062;28;20043;-60
2021/12/03 02:37:43;;;;;;;3.25;1.83;;;1.40;99.90;;;;;;5130586;27;20126;-60
2021/12/03 02:40:10;;;;;;;6.10;2.20;;;1.70;99.90;;;;;;5114045;27;20051;-60
2021/12/03 02:42:36;;;;;;;6.57;1.95;;;1.50;99.90;;;;;;5114403;28;20048;-60
2021/12/03 02:45:04;;;;;;;5.97;2.03;;;1.50;99.90;;;;;;5114407;28;20082;-60
2021/12/03 02:47:30;;;;;;;5.18;2.08;;;1.50;99.90;;;;;;5113066;28;20048;-60
2021/12/03 02:49:56;;;;;;;6.22;2.00;;;1.50;99.90;;;;;;5113432;28;20043;-60
2021/12/03 02:52:21;;;;;;;5.50;1.80;;;1.70;99.90;;;;;;5113823;28;20044;-60
2021/12/03 02:54:47;;;;;;;5.07;1.75;;;1.50;99.90;;;;;;5113896;28;20115;-59
2021/12/03 02:57:13;;;;;;;4.28;1.83;;;1.50;99.90;;;;;;5129626;27;20043;-60
2021/12/03 02:59:39;;;;;;;4.53;2.00;;;1.50;99.90;;;;;;5112987;28;20454;-60
2021/12/03 03:02:05;;;;;;;4.30;2.00;;;2.00;99.90;;;;;;5114108;28;20136;-59
2021/12/03 03:04:30;;;;;;;4.72;1.77;;;1.60;99.90;;;;;;5113591;28;20036;-60
2021/12/03 03:06:56;;;;;;;4.68;1.95;;;1.60;99.90;;;;;;5114045;28;20048;-60
2021/12/03 03:09:23;;;;;;;5.50;1.70;;;1.60;99.90;;;;;;5112647;28;20143;-60
2021/12/03 03:11:48;;;;;;;3.25;1.90;;;1.60;99.90;;;;;;5113926;27;20117;-59
2021/12/03 03:14:14;;;;;;;6.28;2.35;;;1.60;99.90;;;;;;5113474;28;20048;-60
2021/12/03 03:16:42;;;;;;;6.43;2.53;;;1.60;99.90;;;;;;5113859;28;20071;-60
2021/12/03 03:19:10;;;;;;;9.15;2.58;;;1.60;99.90;;;;;;5113011;28;20048;-61
2021/12/03 03:21:36;;;;;;;9.40;2.90;;;1.60;99.90;;;;;;5112069;28;20036;-60
2021/12/03 03:24:04;;;;;;;7.15;2.92;;;1.70;99.90;;;;;;5113757;28;20043;-60
2021/12/03 03:26:30;;;;;;;5.05;2.83;;;1.60;99.90;;;;;;5113343;28;20118;-60
2021/12/03 03:28:57;;;;;;;5.10;3.50;;;1.60;99.90;;;;;;5112326;28;20052;-59
2021/12/03 03:31:23;;;;;;;9.85;3.92;;;1.60;99.90;;;;;;5128650;27;20122;-59
2021/12/03 03:33:49;;;;;;;8.60;4.22;;;1.60;99.90;;;;;;5129314;27;20460;-60
2021/12/03 03:36:16;;;;;;;12.55;4.05;;;1.70;99.90;;;;;;5113067;28;20044;-63
2021/12/03 03:38:42;;;;;;;12.10;4.75;;;1.70;99.90;;;;;;5113534;28;20048;-61
2021/12/03 03:41:07;;;;;;;11.20;5.75;;;1.70;99.90;;;;;;5112341;28;20054;-60
2021/12/03 03:43:33;;;;;;;12.77;5.55;;;1.70;99.90;;;;;;5112860;28;20224;-60
2021/12/03 03:45:59;;;;;;;10.25;6.13;;;1.70;99.90;;;;;;5113129;28;20476;-61
2021/12/03 03:48:25;;;;;;;11.13;5.68;;;1.70;99.90;;;;;;5111707;28;20046;-61
2021/12/03 03:50:52;;;;;;;12.10;6.88;;;1.70;99.90;;;;;;5113120;28;20047;-60
2021/12/03 03:53:17;;;;;;;14.93;7.95;;;1.70;99.90;;;;;;5112652;28;20051;-59
2021/12/03 03:55:45;;;;;;;19.17;10.10;;;1.70;99.90;;;;;;5112974;28;20047;-60
2021/12/03 03:58:10;;;;;;;12.68;8.70;;;1.70;99.90;;;;;;5113095;28;20160;-61
2021/12/03 04:00:39;;;;;;;13.63;7.93;;;1.70;99.90;;;;;;5112525;28;20566;-61
2021/12/03 04:03:06;;;;;;;14.60;10.02;;;1.70;99.90;;;;;;5113070;27;20362;-61
2021/12/03 04:05:32;;;;;;;20.83;10.98;;;1.70;99.90;;;;;;5112533;28;20374;-61
2021/12/03 04:07:58;;;;;;;16.52;12.30;;;1.70;99.90;;;;;;5112847;28;20051;-61
2021/12/03 04:10:24;;;;;;;18.50;12.10;;;1.70;99.90;;;;;;5111255;28;20051;-61
2021/12/03 04:12:50;;;;;;;22.63;12.75;;;1.70;99.90;;;;;;5112791;28;20054;-61
2021/12/03 04:15:16;;;;;;;21.40;13.35;;;1.70;99.90;;;;;;5112626;28;20131;-59
2021/12/03 04:17:42;;;;;;;21.92;14.25;;;1.70;99.90;;;;;;5112668;28;20050;-59
2021/12/03 04:20:11;;;;;;;19.98;13.80;;;1.70;99.90;;;;;;5112766;28;20051;-59
2021/12/03 04:22:38;;;;;;;23.30;14.93;;;1.70;99.90;;;;;;5112285;28;20124;-60
2021/12/03 04:25:06;;;;;;;20.20;14.25;;;2.00;99.90;;;;;;5112498;28;20510;-60
2021/12/03 04:27:32;;;;;;;24.58;15.32;;;1.70;99.90;;;;;;5094285;28;20051;-60
2021/12/03 04:29:58;;;;;;;21.35;13.25;;;1.70;99.90;;;;;;5112434;28;20050;-61
2021/12/03 04:32:25;;;;;;;20.98;15.32;;;1.70;99.90;;;;;;5110924;28;20054;-60
2021/12/03 04:34:52;;;;;;;23.17;15.40;;;1.70;99.90;;;;;;5112284;28;20040;-60
2021/12/03 04:37:17;;;;;;;25.80;17.40;;;1.70;99.90;;;;;;5112006;28;20096;-59
2021/12/03 04:39:43;;;;;;;25.98;15.07;;;1.70;99.90;;;;;;5111990;28;20044;-59
2021/12/03 04:42:09;;;;;;;23.08;15.35;;;1.70;99.90;;;;;;5128237;27;20039;-60
2021/12/03 04:44:35;;;;;;;25.25;14.00;;;1.70;99.90;;;;;;5112122;28;20043;-59
2021/12/03 04:47:02;;;;;;;21.77;13.90;;;1.70;99.90;;;;;;5111133;28;20059;-60
2021/12/03 04:49:28;;;;;;;20.65;14.70;;;1.70;99.90;;;;;;5111698;28;20067;-60
2021/12/03 04:51:55;;;;;;;20.77;14.25;;;2.20;99.90;;;;;;5112181;28;20438;-60
2021/12/03 04:54:21;;;;;;;20.20;14.45;;;1.70;99.90;;;;;;5111918;28;20055;-59
2021/12/03 04:56:47;;;;;;;21.42;13.88;;;1.70;99.90;;;;;;5110465;28;20060;-59
2021/12/03 04:59:13;;;;;;;18.55;14.55;;;1.70;99.90;;;;;;5110763;28;20050;-60
2021/12/03 05:01:39;;;;;;;21.75;13.75;;;1.70;99.90;;;;;;5093274;28;20049;-59
2021/12/03 05:04:05;;;;;;;19.65;13.13;;;1.70;99.90;;;;;;5110893;28;20087;-60
2021/12/03 05:06:52;;;;;;;20.40;13.60;;;1.70;99.90;;;;;;5111590;28;20094;-60
2021/12/03 05:09:17;;;;;;;19.95;13.45;;;1.70;99.90;;;;;;5111701;28;20489;-60
2021/12/03 05:11:42;;;;;;;20.13;13.35;;;1.60;99.90;;;;;;5111467;28;20050;-60
2021/12/03 05:14:08;;;;;;;19.58;13.45;;;1.80;99.90;;;;;;5111936;28;20054;-59
2021/12/03 05:16:34;;;;;;;22.77;12.85;;;1.70;99.90;;;;;;5111416;28;20098;-60
2021/12/03 05:19:00;;;;;;;18.48;12.25;;;1.90;99.90;;;;;;5111764;28;20079;-60
2021/12/03 05:21:25;;;;;;;16.60;11.50;;;1.60;99.90;;;;;;5110579;28;20048;-63
2021/12/03 05:23:51;;;;;;;21.85;12.18;;;1.60;99.90;;;;;;5110504;28;20048;-59
2021/12/03 05:26:17;;;;;;;18.65;11.65;;;1.60;99.90;;;;;;5111734;28;20039;-60
2021/12/03 05:28:44;;;;;;;22.25;11.68;;;1.70;99.90;;;;;;5111200;28;20144;-61
2021/12/03 05:31:09;;;;;;;18.33;11.85;;;1.70;99.90;;;;;;5111658;28;20055;-60
2021/12/03 05:33:35;;;;;;;16.55;11.27;;;1.70;99.90;;;;;;5111257;28;20415;-58
2021/12/03 05:36:01;;;;;;;22.02;10.38;;;1.70;99.90;;;;;;5110463;28;20047;-60
2021/12/03 05:38:27;;;;;;;16.27;11.35;;;1.80;99.90;;;;;;5111704;28;20096;-62
2021/12/03 05:40:52;;;;;;;16.48;10.95;;;1.70;99.90;;;;;;5111278;28;20051;-61
2021/12/03 05:43:18;;;;;;;14.98;10.40;;;1.70;99.90;;;;;;5114382;28;20055;-60
2021/12/03 05:45:45;;;;;;;12.57;9.10;;;1.80;99.90;;;;;;5114040;28;20036;-60
2021/12/03 05:48:12;;;;;;;14.77;11.40;;;1.80;99.90;;;;;;5115699;28;20104;-60
2021/12/03 05:50:37;;;;;;;17.08;11.15;;;1.80;99.90;;;;;;5114929;28;20119;-60
2021/12/03 05:53:03;;;;;;;16.65;10.48;;;1.90;99.90;;;;;;5115532;28;20043;-60
2021/12/03 05:55:29;;;;;;;17.50;11.73;;;1.80;99.90;;;;;;5130476;27;20062;-63
2021/12/03 05:57:56;;;;;;;15.02;11.30;;;1.80;99.90;;;;;;5130919;27;20477;-60
2021/12/03 06:00:42;;;;;;;14.45;8.60;;;1.70;99.90;;;;;;5115237;28;20063;-59
2021/12/03 06:03:08;;;;;;;14.27;9.15;;;1.70;99.90;;;;;;5115392;28;20447;-61
2021/12/03 06:05:35;;;;;;;14.00;9.77;;;1.70;99.90;;;;;;5114793;28;20123;-60
2021/12/03 06:08:01;;;;;;;14.15;11.75;;;1.70;99.90;;;;;;5114258;28;20058;-59
2021/12/03 06:10:28;;;;;;;15.18;10.30;;;1.70;99.90;;;;;;5113759;28;20096;-61
2021/12/03 06:12:54;;;;;;;15.95;11.18;;;1.80;99.90;;;;;;5113137;28;20051;-60
2021/12/03 06:15:21;;;;;;;20.25;11.98;;;1.70;99.90;;;;;;5113842;28;20043;-60
2021/12/03 06:17:47;;;;;;;17.05;11.48;;;1.70;99.90;;;;;;5130390;27;20082;-61
2021/12/03 06:20:16;;;;;;;17.45;12.27;;;1.60;99.90;;;;;;5114971;28;20089;-59
2021/12/03 06:22:42;;;;;;;15.00;9.80;;;1.60;99.90;;;;;;5114428;28;20074;-60
2021/12/03 06:25:11;;;;;;;19.58;12.98;;;1.70;99.90;;;;;;5114909;28;20144;-60
2021/12/03 06:27:38;;;;;;;19.02;11.93;;;1.90;99.90;;;;;;5114509;28;20183;-61
2021/12/03 06:30:07;;;;;;;15.55;12.02;;;1.70;99.90;;;;;;5113853;28;20396;-60
2021/12/03 06:32:34;;;;;;;19.30;12.80;;;1.70;99.90;;;;;;5114637;28;20408;-60
2021/12/03 06:34:59;;;;;;;23.25;13.07;;;1.70;99.90;;;;;;5114462;28;20044;-60
2021/12/03 06:37:25;;;;;;;18.10;12.77;;;1.80;99.90;;;;;;5114755;28;20074;-60
2021/12/03 06:39:51;;;;;;;19.63;13.02;;;1.80;99.90;;;;;;5113091;28;20043;-60
2021/12/03 06:42:17;;;;;;;18.05;12.95;;;1.80;99.90;;;;;;5114761;28;20044;-60
2021/12/03 06:44:43;;;;;;;17.52;12.10;;;1.80;99.90;;;;;;5112980;28;20104;-60
2021/12/03 06:47:09;;;;;;;14.98;11.43;;;1.80;99.90;;;;;;5114315;28;20044;-60
2021/12/03 06:49:34;;;;;;;14.32;11.48;;;1.80;99.90;;;;;;5114707;28;20043;-61
2021/12/03 06:52:05;;;;;;;14.70;11.07;;;1.90;99.90;;;;;;5113905;28;20066;-60
2021/12/03 06:54:33;;;;;;;19.52;13.93;;;2.00;99.90;;;;;;5113012;28;20051;-60
2021/12/03 06:57:01;;;;;;;22.90;11.70;;;1.90;99.90;;;;;;5112870;28;20051;-61
2021/12/03 06:59:27;;;;;;;17.10;10.63;;;1.90;99.90;;;;;;5114452;28;20081;-60
2021/12/03 07:01:53;;;;;;;18.55;12.18;;;2.30;99.90;;;;;;5129772;27;20046;-59
2021/12/03 07:04:19;;;;;;;18.80;10.57;;;2.00;99.90;;;;;;5114283;28;20040;-59
2021/12/03 07:06:46;;;;;;;18.75;10.73;;;2.00;99.90;;;;;;5113525;28;20105;-60
2021/12/03 07:09:12;;;;;;;15.68;11.32;;;2.10;99.90;;;;;;5113044;28;20048;-60
2021/12/03 07:11:37;;;;;;;17.60;10.63;;;2.20;99.90;;;;;;5114133;28;20354;-59
2021/12/03 07:14:04;;;;;;;28.85;10.73;;;2.10;99.90;;;;;;5113220;28;20100;-60
2021/12/03 07:16:30;;;;;;;14.68;9.30;;;2.10;99.90;;;;;;5113767;28;20043;-60
2021/12/03 07:18:57;;;;;;;16.02;9.77;;;2.10;99.90;;;;;;5112328;28;20384;-60
2021/12/03 07:21:23;;;;;;;15.65;9.32;;;2.10;99.90;;;;;;5095597;28;20130;-60
2021/12/03 07:23:50;;;;;;;16.13;8.32;;;2.30;99.90;;;;;;5112085;28;20177;-59
2021/12/03 07:26:17;;;;;;;17.42;9.40;;;2.20;99.90;;;;;;5113618;28;20050;-60
2021/12/03 07:28:43;;;;;;;15.10;9.02;;;2.20;99.90;;;;;;5113260;28;20456;-64
2021/12/03 07:31:09;;;;;;;15.20;8.65;;;2.30;99.90;;;;;;5113492;28;20062;-60
2021/12/03 07:33:35;;;;;;;12.02;7.18;;;2.40;99.90;;;;;;5113211;28;20048;-61
2021/12/03 07:36:01;;;;;;;16.58;7.13;;;2.40;99.90;;;;;;5094571;28;20040;-60
2021/12/03 07:38:27;;;;;;;11.10;7.40;;;2.40;99.90;;;;;;5113020;28;20039;-60
2021/12/03 07:40:53;;;;;;;13.68;6.78;;;2.40;99.90;;;;;;5112878;28;20083;-60
2021/12/03 07:43:19;;;;;;;15.05;6.00;;;2.40;99.90;;;;;;5113255;28;20054;-61
2021/12/03 07:45:47;;;;;;;10.02;6.47;;;2.40;99.90;;;;;;5129178;27;20115;-63
2021/12/03 07:48:13;;;;;;;13.20;6.57;;;2.40;99.90;;;;;;5095220;28;20400;-60
2021/12/03 07:50:40;;;;;;;8.38;5.43;;;2.40;99.90;;;;;;5111970;28;20052;-60
2021/12/03 07:53:07;;;;;;;11.57;6.35;;;2.40;99.90;;;;;;5128403;27;20367;-60
2021/12/03 07:55:34;;;;;;;9.30;5.50;;;2.60;99.90;;;;;;5111389;28;20386;-60
2021/12/03 07:58:01;;;;;;;9.77;5.95;;;2.50;99.90;;;;;;5128654;27;20039;-60
2021/12/03 08:00:27;;;;;;;11.15;5.82;;;2.50;99.90;;;;;;5111977;28;20374;-60
2021/12/03 08:02:53;;;;;;;13.50;5.50;;;2.50;99.90;;;;;;5112425;28;20054;-60
2021/12/03 08:05:18;;;;;;;7.03;4.40;;;2.50;99.90;;;;;;5112589;28;20538;-60
2021/12/03 08:07:47;;;;;;;7.60;5.50;;;2.50;99.90;;;;;;5111889;28;20043;-59
2021/12/03 08:10:14;;;;;;;11.02;5.22;;;2.50;99.90;;;;;;5112821;28;20130;-59
2021/12/03 08:12:41;;;;;;;14.23;5.45;;;2.50;99.90;;;;;;5112868;27;20078;-59
2021/12/03 08:15:08;;;;;;;9.48;5.63;;;2.50;99.90;;;;;;5112226;28;20104;-60
2021/12/03 08:17:34;;;;;;;7.75;4.22;;;2.50;99.90;;;;;;5111647;28;20047;-60
2021/12/03 08:19:59;;;;;;;9.05;4.68;;;2.80;99.90;;;;;;5112349;28;20451;-54
2021/12/03 08:22:25;;;;;;;7.57;4.15;;;2.50;99.90;;;;;;5111691;28;20059;-57
2021/12/03 08:24:51;;;;;;;10.70;5.03;;;2.50;99.90;;;;;;5112254;28;20477;-58
2021/12/03 08:27:17;;;;;;;8.75;4.93;;;2.50;99.90;;;;;;5112544;28;20039;-59
2021/12/03 08:29:43;;;;;;;7.55;4.30;;;2.60;99.90;;;;;;5112432;28;20403;-57
2021/12/03 08:32:10;;;;;;;9.40;4.28;;;2.60;99.90;;;;;;5111860;28;20657;-59
2021/12/03 08:34:36;;;;;;;11.15;4.78;;;2.80;99.90;;;;;;5111218;28;20043;-60
2021/12/03 08:37:02;;;;;;;8.32;4.10;;;2.60;99.90;;;;;;5111861;28;20530;-60
2021/12/03 08:39:30;;;;;;;13.65;4.60;;;2.70;99.90;;;;;;5111211;28;20059;-58
2021/12/03 08:41:56;;;;;;;9.13;3.60;;;2.70;99.90;;;;;;5111935;28;20424;-59
2021/12/03 08:44:22;;;;;;;7.00;3.58;;;2.70;99.90;;;;;;5112318;28;20107;-59
2021/12/03 08:46:56;;;;;;;9.38;4.22;;;2.80;99.90;;;;;;5112415;28;20051;-59
2021/12/03 08:49:37;;;;;;;7.63;3.88;;;3.00;99.90;;;;;;5112369;28;20400;-59
2021/12/03 08:57:19;;;;;;;13.30;4.57;;;2.90;99.90;;;;;;5111933;28;20129;-59
2021/12/03 08:59:44;;;;;;;13.13;4.72;;;2.90;99.90;;;;;;5111034;28;20079;-59
2021/12/03 09:02:11;;;;;;;12.15;5.40;;;3.00;99.90;;;;;;5111832;28;20098;-59
2021/12/03 09:04:36;;;;;;;9.52;4.93;;;3.00;99.90;;;;;;5110758;28;20050;-58
2021/12/03 09:07:04;;;;;;;8.02;4.50;;;3.00;99.90;;;;;;5110588;28;20485;-59
2021/12/03 09:09:31;;;;;;;12.05;4.88;;;3.00;99.90;;;;;;5111037;28;20055;-58
2021/12/03 09:11:57;;;;;;;11.32;5.32;;;3.00;99.90;;;;;;5110526;28;20079;-60
2021/12/03 09:14:28;;;;;;;10.57;5.47;;;3.00;99.90;;;;;;5111868;28;20480;-60
2021/12/03 09:17:01;;;;;;;10.50;5.60;;;3.10;99.90;;;;;;5112578;28;20128;-62
2021/12/03 09:19:34;;;;;;;12.23;5.63;;;3.10;99.90;;;;;;5115482;28;20054;-59
2021/12/03 09:22:00;;;;;;;14.15;5.55;;;3.10;99.90;;;;;;5130948;27;20058;-59
2021/12/03 09:24:31;;;;;;;15.70;6.18;;;3.10;99.90;;;;;;5115097;28;20389;-56
2021/12/03 09:26:57;;;;;;;15.23;5.55;;;3.20;99.90;;;;;;5115610;27;20044;-61
2021/12/03 09:29:29;;;;;;;16.85;6.85;;;3.10;99.90;;;;;;5116142;28;20123;-59
2021/12/03 09:31:56;;;;;;;14.18;6.45;;;3.20;99.90;;;;;;5115767;28;20594;-57
2021/12/03 09:34:24;;;;;;;14.35;7.40;;;3.20;99.90;;;;;;5114592;28;20108;-59
2021/12/03 09:36:49;;;;;;;14.13;6.60;;;3.20;99.90;;;;;;5114961;28;20059;-57
2021/12/03 09:39:19;;;;;;;11.45;6.63;;;3.20;99.90;;;;;;5114247;28;20044;-57
2021/12/03 09:41:45;;;;;;;13.82;7.38;;;3.20;99.90;;;;;;5115864;28;20054;-59
2021/12/03 09:44:11;;;;;;;13.68;7.97;;;3.30;99.90;;;;;;5115344;28;20043;-57
2021/12/03 09:46:37;;;;;;;17.13;9.02;;;3.20;99.90;;;;;;5114700;28;20044;-58
2021/12/03 09:52:24;;;;;;;15.45;8.95;;;3.30;99.90;;;;;;5115498;28;20184;-59
2021/12/03 10:00:17;;;;;;;11.52;8.20;;;3.40;99.90;;;;;;5115339;28;20056;-60
2021/12/03 10:09:36;;;;;;;20.73;9.65;;;3.40;99.90;;;;;;5114073;28;20054;-58
2021/12/03 10:14:12;;;;;;;21.23;9.75;;;3.50;99.90;;;;;;5115415;28;20400;-58
2021/12/03 10:19:00;;;;;;;17.40;8.40;;;3.50;99.90;;;;;;5130852;27;20051;-58
2021/12/03 10:39:04;;;;;;;10.93;7.20;;;3.70;99.90;;;;;;5113549;28;20286;-59
2021/12/03 10:41:44;;;;;;;14.93;7.75;;;3.80;99.90;;;;;;5114233;27;20059;-59
2021/12/03 10:44:44;;;;;;;16.40;7.60;;;3.80;99.90;;;;;;5114418;28;20109;-59
2021/12/03 10:49:42;;;;;;;18.40;7.10;;;3.80;99.90;;;;;;5112729;28;20488;-57
2021/12/03 10:52:23;;;;;;;12.75;6.97;;;3.80;99.90;;;;;;5112854;28;20044;-62
2021/12/03 11:00:34;;;;;;;13.20;6.35;;;3.80;99.90;;;;;;5114793;28;20044;-59
2021/12/03 11:33:32;;;;;;;14.02;5.90;;;3.90;99.90;;;;;;5113565;28;20055;-59
2021/12/03 11:35:07;;;;;;;23.33;6.22;;;3.90;99.90;;;;;;5113185;28;20048;-58
2021/12/03 11:37:49;;;;;;;10.57;4.00;;;3.90;99.90;;;;;;5112427;28;20058;-57
2021/12/03 11:49:52;;;;;;;14.05;5.50;;;3.80;99.90;;;;;;5112705;28;20454;-59
2021/12/03 12:10:10;;;;;;;10.55;4.55;;;3.80;99.90;;;;;;5113048;28;20100;-56
2021/12/03 14:44:38;;;;;;;8.77;4.18;;;4.20;99.90;;;;;;5113813;28;20040;-59
2021/12/03 14:50:21;;;;;;;8.32;3.92;;;4.20;99.90;;;;;;5113475;28;20051;-59
2021/12/03 14:53:32;;;;;;;10.88;5.05;;;4.20;99.90;;;;;;5114470;28;20505;-56
2021/12/03 14:55:47;;;;;;;9.73;4.72;;;4.20;99.90;;;;;;5113585;28;20512;-55
2021/12/03 14:58:16;;;;;;;9.88;4.75;;;4.30;99.90;;;;;;5113577;28;20052;-59
2021/12/03 15:01:22;;;;;;;10.45;5.03;;;4.30;99.90;;;;;;5114176;28;20055;-58
2021/12/03 15:06:24;;;;;;;7.55;4.00;;;4.20;99.90;;;;;;5114094;28;20077;-60
2021/12/03 15:08:55;;;;;;;7.35;4.63;;;4.20;99.90;;;;;;5114098;28;20141;-58
2021/12/03 15:24:57;;;;;;;9.65;5.53;;;4.20;99.90;;;;;;5114326;28;20074;-59
2021/12/03 15:30:41;;;;;;;8.77;5.22;;;4.20;99.90;;;;;;5114192;27;20067;-57
2021/12/03 15:36:04;;;;;;;8.52;5.13;;;4.20;99.90;;;;;;5113247;28;20134;-60
2021/12/03 15:52:35;;;;;;;8.23;5.55;;;4.30;99.90;;;;;;5126496;27;20086;-60
2021/12/03 15:55:13;;;;;;;11.43;7.20;;;4.30;99.90;;;;;;5112414;28;20080;-63
2021/12/03 16:03:32;;;;;;;9.05;6.40;;;4.20;99.90;;;;;;5112858;28;20094;-60
2021/12/03 16:08:20;;;;;;;11.27;7.85;;;4.40;99.90;;;;;;5112685;27;20462;-59
2021/12/03 16:13:44;;;;;;;11.18;8.77;;;4.20;99.90;;;;;;5113078;28;20059;-60
2021/12/03 16:16:44;;;;;;;13.70;8.68;;;4.20;99.90;;;;;;5112326;28;20500;-60
2021/12/03 16:27:28;;;;;;;13.25;11.02;;;4.20;99.90;;;;;;5112220;27;20128;-60
2021/12/03 16:43:51;;;;;;;11.82;8.70;;;4.30;99.90;;;;;;5112620;28;20044;-59
2021/12/03 16:54:09;;;;;;;12.35;10.57;;;4.30;99.90;;;;;;5112159;28;20054;-60
2021/12/03 16:56:42;;;;;;;15.65;11.15;;;4.30;99.90;;;;;;5112275;28;20187;-60
2021/12/03 16:59:08;;;;;;;13.32;11.82;;;4.30;99.90;;;;;;5112131;28;20466;-56
2021/12/03 17:01:45;;;;;;;11.90;10.45;;;4.20;99.90;;;;;;5128423;27;20048;-58
2021/12/03 17:20:23;;;;;;;12.20;8.63;;;4.30;99.90;;;;;;5112160;28;20055;-59
2021/12/03 17:57:56;;;;;;;16.10;12.43;;;4.30;99.90;;;;;;5116055;28;20136;-54
2021/12/03 18:00:33;;;;;;;16.15;12.07;;;4.30;99.90;;;;;;5115562;27;20055;-53
2021/12/03 18:06:09;;;;;;;13.05;10.68;;;4.30;99.90;;;;;;5082962;28;20112;-59
2021/12/03 18:44:37;;;;;;;20.88;14.38;;;4.50;99.90;;;;;;5112886;28;20511;-59
2021/12/03 18:54:47;;;;;;;;;;;4.50;99.90;;;;;;5112109;28;20155;-58
2021/12/03 18:57:17;;;;;;;19.45;14.75;;;4.40;99.90;;;;;;5112924;28;19920;-60
2021/12/03 19:00:01;;;;;;;19.40;13.40;;;4.40;99.90;;;;;;5095809;28;20052;-60
2021/12/03 19:02:28;;;;;;;19.08;13.75;;;4.50;99.90;;;;;;5112007;28;20205;-60
2021/12/03 19:10:24;;;;;;;23.45;17.27;;;4.50;99.90;;;;;;5077745;27;20047;-58
2021/12/03 19:13:00;;;;;;;22.80;18.00;;;4.40;99.90;;;;;;5113126;28;20035;-59
2021/12/03 19:15:26;;;;;;;20.42;14.82;;;4.50;99.90;;;;;;5111570;28;20043;-58
2021/12/03 19:17:52;;;;;;;20.88;14.93;;;4.50;99.90;;;;;;5111679;28;20082;-59
2021/12/03 19:20:23;;;;;;;21.92;16.50;;;4.50;99.90;;;;;;5112479;27;20053;-60
2021/12/03 19:22:50;;;;;;;22.20;16.58;;;4.50;99.90;;;;;;5111837;28;20148;-60
2021/12/03 19:25:16;;;;;;;23.98;16.63;;;4.50;99.90;;;;;;5112545;28;20043;-56
2021/12/03 19:27:42;;;;;;;23.48;17.05;;;4.50;99.90;;;;;;5112784;28;20126;-57
2021/12/03 19:30:09;;;;;;;23.45;15.77;;;4.50;99.90;;;;;;5112586;28;20043;-59
2021/12/03 19:32:35;;;;;;;24.85;18.23;;;4.50;99.90;;;;;;5111060;28;20044;-58
2021/12/03 19:35:02;;;;;;;25.98;18.83;;;4.50;99.90;;;;;;5111397;28;20043;-59
2021/12/03 19:37:29;;;;;;;24.70;16.77;;;4.50;99.90;;;;;;5110906;28;20051;-59
2021/12/03 19:40:00;;;;;;;25.05;18.23;;;4.50;99.90;;;;;;5112308;28;20082;-58
2021/12/03 19:42:34;;;;;;;27.60;19.13;;;4.50;99.90;;;;;;5110600;28;20127;-60
2021/12/03 19:45:03;;;;;;;26.83;17.30;;;4.50;99.90;;;;;;5112104;28;20436;-59
2021/12/03 19:53:37;;;;;;;30.13;20.50;;;4.60;99.90;;;;;;5112237;28;20425;-60
2021/12/03 19:55:32;;;;;;;31.13;20.23;;;4.60;99.90;;;;;;5099218;28;20113;-59
2021/12/03 19:57:57;;;;;;;28.88;19.88;;;4.50;99.90;;;;;;5112151;28;20056;-58
2021/12/03 20:00:24;;;;;;;29.75;19.75;;;4.50;99.90;;;;;;5111100;28;20047;-61
2021/12/03 20:02:51;;;;;;;30.10;19.35;;;4.50;99.90;;;;;;5112107;28;20146;-61
2021/12/03 20:05:16;;;;;;;32.45;21.13;;;4.50;99.90;;;;;;5110604;28;20397;-60
2021/12/03 20:07:43;;;;;;;29.60;19.83;;;4.60;99.90;;;;;;5112058;28;20047;-62
2021/12/03 20:10:15;;;;;;;24.75;15.38;;;4.60;99.90;;;;;;5093956;28;20039;-59
2021/12/03 20:12:41;;;;;;;30.42;19.38;;;4.50;99.90;;;;;;5110398;28;20479;-58
2021/12/03 20:15:10;;;;;;;39.30;23.35;;;4.60;99.90;;;;;;5111694;28;20040;-57
2021/12/03 20:17:43;;;;;;;37.20;23.52;;;4.60;99.90;;;;;;5111211;28;20047;-59
2021/12/03 20:20:10;;;;;;;34.63;23.08;;;4.60;99.90;;;;;;5111707;28;20043;-58